Time;durP1;ratioP1;P1;durP2;ratioP2;P2;SDS_P1;SDS_P2;PMS_P1;PMS_P2;Temp;Humidity;BMP_temperature;BMP_pressure;BME280_temperature;BME280_humidity;BME280_pressure;Samples;Min_cycle;Max_cycle;Signal;HPM_P1;HPM_P2
2020/12/21 11:20:59;;;;;;;10.23;3.53;;;21.20;50.10;;;;;;5140325;27;20399;-65
2020/12/21 11:23:26;;;;;;;9.95;3.90;;;19.30;54.40;;;;;;5140180;27;20043;-60
2020/12/21 11:25:51;;;;;;;14.00;3.92;;;19.20;54.60;;;;;;5140268;27;20120;-60
2020/12/21 11:28:17;;;;;;;11.70;4.07;;;19.10;54.70;;;;;;5140245;27;20159;-63
2020/12/21 11:30:43;;;;;;;15.63;4.40;;;19.00;54.70;;;;;;5140514;27;20054;-63
2020/12/21 11:33:08;;;;;;;11.88;4.10;;;19.00;54.70;;;;;;5141879;27;20509;-65
2020/12/21 11:35:34;;;;;;;12.63;3.67;;;19.00;54.70;;;;;;5136545;27;20047;-63
2020/12/21 12:51:25;;;;;;;7.00;2.78;;;19.10;52.70;;;;;;5086970;27;20182;-57
2020/12/21 12:53:51;;;;;;;5.93;2.60;;;19.20;53.20;;;;;;5044358;28;20087;-58
2020/12/21 12:56:17;;;;;;;5.10;2.58;;;19.20;53.10;;;;;;5033789;28;70472;-57
2020/12/21 13:01:26;;;;;;;5.45;2.00;;;19.20;52.90;;;;;;5064370;22;778431;-59
2020/12/21 13:03:52;;;;;;;8.13;2.70;;;19.30;53.60;;;;;;5030923;28;20053;-57
2020/12/21 13:06:18;;;;;;;5.40;2.10;;;19.30;52.80;;;;;;5020352;28;20060;-57
2020/12/21 13:08:44;;;;;;;6.05;2.50;;;19.30;52.80;;;;;;5013100;28;20049;-58
2020/12/21 13:11:09;;;;;;;7.50;2.40;;;19.40;52.80;;;;;;5035707;28;20177;-60
2020/12/21 13:13:36;;;;;;;3.92;1.80;;;19.40;52.70;;;;;;5015051;28;20050;-60
2020/12/21 13:16:03;;;;;;;7.70;2.58;;;19.50;52.50;;;;;;5014703;28;20050;-60
2020/12/21 13:18:29;;;;;;;5.32;2.17;;;19.50;52.50;;;;;;5015784;28;20080;-60
2020/12/21 13:20:55;;;;;;;5.38;2.13;;;19.50;52.50;;;;;;5002064;28;20533;-60
2020/12/21 13:23:21;;;;;;;4.35;1.98;;;19.50;52.30;;;;;;4994873;28;20566;-60
2020/12/21 13:25:46;;;;;;;4.65;1.80;;;19.60;52.30;;;;;;5012001;28;20069;-60
2020/12/21 13:28:13;;;;;;;6.03;2.00;;;19.60;52.20;;;;;;5001477;28;20068;-56
2020/12/21 13:54:07;;;;;;;9.48;4.50;;;11.00;77.90;;;;;;5113989;27;20447;-66
2020/12/21 13:56:34;;;;;;;8.55;4.55;;;10.20;81.20;;;;;;5100550;28;20072;-67
2020/12/21 13:59:00;;;;;;;7.90;4.15;;;9.80;83.50;;;;;;5074130;28;20052;-66
2020/12/21 14:01:26;;;;;;;12.18;5.00;;;9.40;83.30;;;;;;5074483;28;20049;-67
2020/12/21 14:03:52;;;;;;;8.32;5.00;;;9.20;85.20;;;;;;5018054;28;77937;-67
2020/12/21 14:06:18;;;;;;;12.00;6.22;;;9.20;85.60;;;;;;5059573;28;20052;-67
2020/12/21 14:08:44;;;;;;;9.98;5.75;;;9.10;86.40;;;;;;5059244;28;20064;-66
2020/12/21 14:11:10;;;;;;;8.80;4.95;;;9.00;86.90;;;;;;5058653;28;20053;-66
2020/12/21 14:13:38;;;;;;;8.73;4.53;;;8.80;87.30;;;;;;5050391;28;20431;-67
2020/12/21 14:16:14;;;;;;;12.80;6.03;;;8.90;88.50;;;;;;5070366;28;20086;-73
2020/12/21 14:18:48;;;;;;;10.93;5.47;;;8.80;89.20;;;;;;5061724;28;20044;-67
2020/12/21 14:21:14;;;;;;;12.13;5.60;;;8.70;88.40;;;;;;5072999;28;20045;-67
2020/12/21 14:23:41;;;;;;;8.85;4.35;;;8.70;89.20;;;;;;5067170;28;20067;-66
2020/12/21 14:26:07;;;;;;;8.27;4.32;;;8.70;88.90;;;;;;5073426;28;20048;-67
2020/12/21 14:28:35;;;;;;;9.18;5.20;;;8.70;89.80;;;;;;5056853;28;20403;-67
2020/12/21 14:31:01;;;;;;;9.35;3.92;;;8.90;89.40;;;;;;5081545;28;20041;-67
2020/12/21 14:33:28;;;;;;;8.95;5.15;;;8.90;88.40;;;;;;5056819;28;20052;-67
2020/12/21 14:35:55;;;;;;;11.57;5.22;;;8.80;89.00;;;;;;5073943;28;20045;-66
2020/12/21 14:38:21;;;;;;;11.02;4.65;;;8.80;89.40;;;;;;5056631;28;20057;-66
2020/12/21 14:40:46;;;;;;;9.85;5.47;;;8.70;89.20;;;;;;5073248;28;20041;-67
2020/12/21 14:43:12;;;;;;;16.20;8.98;;;8.70;89.70;;;;;;5064350;28;20073;-68
2020/12/21 14:45:38;;;;;;;9.68;4.13;;;8.50;90.20;;;;;;5079272;28;20045;-66
2020/12/21 14:48:04;;;;;;;14.05;5.80;;;8.80;90.00;;;;;;5070289;28;20056;-68
2020/12/21 14:50:31;;;;;;;10.80;5.38;;;8.90;89.30;;;;;;5073675;28;20083;-67
2020/12/21 14:52:57;;;;;;;10.05;4.47;;;8.80;89.30;;;;;;5074427;28;20049;-67
2020/12/21 14:55:23;;;;;;;8.50;3.95;;;8.70;90.10;;;;;;5077824;28;20056;-67
2020/12/21 14:57:49;;;;;;;15.32;5.43;;;8.60;90.30;;;;;;5070290;28;20067;-67
2020/12/21 15:00:15;;;;;;;7.03;4.38;;;8.50;90.30;;;;;;5078564;28;20094;-67
2020/12/21 15:02:41;;;;;;;9.18;4.45;;;8.60;90.30;;;;;;5067337;28;20040;-67
2020/12/21 15:05:08;;;;;;;10.38;3.92;;;8.50;90.60;;;;;;5066934;28;20045;-67
2020/12/21 15:07:37;;;;;;;8.02;3.88;;;8.50;90.70;;;;;;5059404;28;20340;-66
2020/12/21 15:10:05;;;;;;;12.70;4.80;;;8.60;90.40;;;;;;5047082;28;20045;-66
2020/12/21 15:12:34;;;;;;;7.18;3.78;;;8.50;90.30;;;;;;5057977;28;20048;-66
2020/12/21 15:15:04;;;;;;;11.18;4.93;;;8.70;90.40;;;;;;5062014;28;20132;-66
2020/12/21 15:17:30;;;;;;;10.15;4.10;;;8.60;90.50;;;;;;5059103;28;20041;-66
2020/12/21 15:19:56;;;;;;;10.38;4.65;;;8.60;90.60;;;;;;5064298;28;20055;-66
2020/12/21 15:22:22;;;;;;;9.98;4.63;;;8.70;90.50;;;;;;5061818;28;20037;-66
2020/12/21 15:24:47;;;;;;;13.73;4.20;;;8.60;90.70;;;;;;5063188;28;20546;-67
2020/12/21 15:27:13;;;;;;;8.82;3.97;;;8.50;90.90;;;;;;5062429;28;20071;-66
2020/12/21 15:29:39;;;;;;;9.18;3.47;;;8.60;90.90;;;;;;5041477;28;20048;-69
2020/12/21 15:32:06;;;;;;;10.13;4.68;;;8.60;90.60;;;;;;5054078;28;20052;-68
2020/12/21 15:34:32;;;;;;;8.13;4.13;;;8.60;90.70;;;;;;5050401;28;20436;-67
2020/12/21 15:36:57;;;;;;;8.52;4.35;;;8.60;90.70;;;;;;5059648;28;20113;-67
2020/12/21 15:39:23;;;;;;;7.65;4.15;;;8.80;90.20;;;;;;5052416;28;20052;-67
2020/12/21 15:41:49;;;;;;;12.07;5.25;;;8.80;90.30;;;;;;5057228;28;20084;-68
2020/12/21 15:44:15;;;;;;;8.57;4.18;;;8.70;90.30;;;;;;5052612;28;20052;-68
2020/12/21 15:46:41;;;;;;;11.52;5.05;;;8.80;90.40;;;;;;5066121;28;20047;-68
2020/12/21 15:49:06;;;;;;;9.75;4.72;;;8.80;90.30;;;;;;5054736;28;20055;-68
2020/12/21 15:51:32;;;;;;;8.30;4.50;;;8.80;90.30;;;;;;5067260;28;20059;-68
2020/12/21 15:53:58;;;;;;;10.40;3.97;;;8.80;90.30;;;;;;5050524;28;20057;-69
2020/12/21 15:56:24;;;;;;;10.93;4.93;;;8.80;90.40;;;;;;5069445;28;20041;-69
2020/12/21 15:58:50;;;;;;;8.55;4.93;;;8.80;90.30;;;;;;5051577;28;20059;-69
2020/12/21 16:01:16;;;;;;;9.38;4.25;;;8.70;90.70;;;;;;5059267;28;20100;-68
2020/12/21 16:03:42;;;;;;;11.27;4.68;;;8.70;90.60;;;;;;5043653;28;20167;-67
2020/12/21 16:06:08;;;;;;;10.70;4.60;;;8.70;90.70;;;;;;5058803;28;20094;-67
2020/12/21 16:08:34;;;;;;;11.10;4.95;;;8.70;90.60;;;;;;5032426;28;20060;-68
2020/12/21 16:11:01;;;;;;;8.02;4.90;;;8.70;90.80;;;;;;5067335;28;20523;-70
2020/12/21 16:13:27;;;;;;;6.80;4.65;;;8.80;90.70;;;;;;5028306;28;20116;-69
2020/12/21 16:15:53;;;;;;;8.70;5.00;;;9.00;90.40;;;;;;5068470;28;20037;-67
2020/12/21 16:18:19;;;;;;;9.10;4.93;;;9.00;90.20;;;;;;5038467;28;20406;-67
2020/12/21 16:20:45;;;;;;;10.82;5.82;;;9.10;89.90;;;;;;5060724;28;20075;-67
2020/12/21 16:23:12;;;;;;;9.90;5.60;;;9.10;89.70;;;;;;5039019;28;20375;-67
2020/12/21 16:25:38;;;;;;;8.40;5.47;;;9.00;90.30;;;;;;5063455;28;20044;-68
2020/12/21 16:28:06;;;;;;;11.02;5.50;;;8.90;90.50;;;;;;5040215;28;20053;-68
2020/12/21 16:30:32;;;;;;;9.93;5.68;;;8.80;91.10;;;;;;5056042;28;20053;-68
2020/12/21 16:32:58;;;;;;;11.07;6.43;;;8.90;90.70;;;;;;5053049;28;20132;-68
2020/12/21 16:35:28;;;;;;;9.25;5.45;;;8.80;90.70;;;;;;5060922;28;20044;-68
2020/12/21 16:37:53;;;;;;;11.00;5.63;;;8.90;90.70;;;;;;5058201;28;20041;-68
2020/12/21 16:40:19;;;;;;;9.13;5.80;;;8.90;90.50;;;;;;5060651;28;20303;-68
2020/12/21 16:42:45;;;;;;;12.00;6.57;;;8.90;90.70;;;;;;5058956;28;20055;-67
2020/12/21 16:45:12;;;;;;;9.73;6.65;;;8.70;91.10;;;;;;5047741;28;20071;-68
2020/12/21 16:47:38;;;;;;;6.82;5.13;;;9.00;90.50;;;;;;5058465;28;20527;-68
2020/12/21 16:50:05;;;;;;;12.23;6.00;;;8.90;90.90;;;;;;5060815;28;20415;-67
2020/12/21 16:52:30;;;;;;;6.15;3.17;;;9.00;90.60;;;;;;5060381;28;20045;-66
2020/12/21 16:54:56;;;;;;;8.75;5.35;;;9.10;90.60;;;;;;5057858;28;20463;-67
2020/12/21 16:57:22;;;;;;;7.82;4.70;;;9.00;90.60;;;;;;5059766;28;20433;-67
2020/12/21 16:59:49;;;;;;;10.30;5.47;;;9.20;90.10;;;;;;5057523;28;20047;-67
2020/12/21 17:02:15;;;;;;;7.38;5.20;;;9.20;90.10;;;;;;5064048;28;20043;-68
2020/12/21 17:04:41;;;;;;;14.82;8.88;;;9.20;90.20;;;;;;5055598;28;20131;-68
2020/12/21 17:07:07;;;;;;;12.10;7.30;;;9.20;90.10;;;;;;5063310;28;20102;-69
2020/12/21 17:09:33;;;;;;;11.75;7.65;;;9.30;89.60;;;;;;5043955;28;20049;-69
2020/12/21 17:12:00;;;;;;;16.80;9.20;;;9.30;89.70;;;;;;5056502;28;20041;-69
2020/12/21 17:14:29;;;;;;;13.27;8.30;;;9.20;90.20;;;;;;5052495;28;20049;-70
2020/12/21 17:16:56;;;;;;;8.82;6.78;;;9.20;90.40;;;;;;5067892;28;20073;-71
2020/12/21 17:19:22;;;;;;;11.20;7.47;;;9.20;90.50;;;;;;5049301;28;20048;-71
2020/12/21 17:21:48;;;;;;;9.65;7.40;;;9.20;90.30;;;;;;5067212;28;20980;-70
2020/12/21 17:24:15;;;;;;;10.75;7.25;;;9.30;90.30;;;;;;5048438;28;20064;-73
2020/12/21 17:26:41;;;;;;;11.13;7.60;;;9.30;90.30;;;;;;5055043;28;20056;-69
2020/12/21 17:29:08;;;;;;;7.05;5.40;;;9.30;90.30;;;;;;5049806;28;20049;-69
2020/12/21 17:31:34;;;;;;;13.40;8.52;;;9.30;90.40;;;;;;5055244;28;20045;-69
2020/12/21 17:34:00;;;;;;;10.93;7.80;;;9.20;90.50;;;;;;5045539;28;20663;-69
2020/12/21 17:36:27;;;;;;;13.35;8.82;;;9.10;90.90;;;;;;5042908;28;20047;-68
2020/12/21 17:38:54;;;;;;;9.88;7.60;;;9.20;90.60;;;;;;5042140;28;20050;-68
2020/12/21 17:41:20;;;;;;;10.10;7.60;;;9.00;91.20;;;;;;5065824;28;20078;-68
2020/12/21 17:43:45;;;;;;;11.38;8.18;;;9.00;91.30;;;;;;5037403;28;20049;-68
2020/12/21 17:46:11;;;;;;;11.45;9.02;;;9.10;90.90;;;;;;5056238;28;20048;-69
2020/12/21 17:48:37;;;;;;;11.23;8.75;;;9.10;91.20;;;;;;5037476;28;20582;-69
2020/12/21 17:51:04;;;;;;;9.40;7.10;;;9.10;91.30;;;;;;5054493;28;20428;-70
2020/12/21 17:53:30;;;;;;;8.80;7.60;;;9.10;91.20;;;;;;5046849;28;20248;-69
2020/12/21 17:55:55;;;;;;;10.60;8.60;;;9.00;91.40;;;;;;5059301;28;20563;-68
2020/12/21 17:58:21;;;;;;;11.10;9.25;;;9.10;91.30;;;;;;5048367;28;20101;-69
2020/12/21 18:00:48;;;;;;;11.27;9.05;;;9.00;91.70;;;;;;5052065;28;20563;-69
2020/12/21 18:03:15;;;;;;;8.45;7.05;;;9.10;91.30;;;;;;5054643;28;20124;-71
2020/12/21 18:05:42;;;;;;;12.48;9.27;;;9.20;91.20;;;;;;5055498;28;20051;-70
2020/12/21 18:08:08;;;;;;;10.70;7.40;;;9.20;90.90;;;;;;5043417;28;20559;-66
2020/12/21 18:10:34;;;;;;;11.85;8.13;;;9.30;90.80;;;;;;5041250;28;20045;-66
2020/12/21 18:12:59;;;;;;;6.70;6.00;;;9.30;90.90;;;;;;5050832;28;20045;-66
2020/12/21 18:15:25;;;;;;;10.52;8.23;;;9.30;90.80;;;;;;5058053;28;20036;-69
2020/12/21 18:17:54;;;;;;;11.90;8.48;;;9.30;91.00;;;;;;5057935;28;20501;-64
2020/12/21 18:20:21;;;;;;;9.70;8.57;;;9.20;91.20;;;;;;5031008;28;20601;-64
2020/12/21 18:22:47;;;;;;;10.48;9.23;;;9.30;90.90;;;;;;5041293;28;20516;-63
2020/12/21 18:25:13;;;;;;;12.40;9.75;;;9.20;91.60;;;;;;5038781;28;20044;-64
2020/12/21 18:27:39;;;;;;;10.02;7.80;;;9.10;91.70;;;;;;5058819;28;20129;-64
2020/12/21 18:30:05;;;;;;;8.90;7.43;;;9.30;91.10;;;;;;5051054;28;20040;-64
2020/12/21 18:32:31;;;;;;;7.10;6.40;;;9.30;91.20;;;;;;5062486;28;20044;-64
2020/12/21 18:35:01;;;;;;;10.27;9.23;;;9.40;90.90;;;;;;5041357;28;20065;-64
2020/12/21 18:37:27;;;;;;;10.23;8.50;;;9.30;90.80;;;;;;5054693;28;20051;-64
2020/12/21 18:39:53;;;;;;;10.07;8.82;;;9.30;91.60;;;;;;5046081;28;20048;-63
2020/12/21 18:42:20;;;;;;;9.20;7.95;;;9.20;91.50;;;;;;5068163;28;20724;-63
2020/12/21 18:44:47;;;;;;;7.72;6.72;;;9.30;91.40;;;;;;5046862;28;20383;-64
2020/12/21 18:47:14;;;;;;;10.27;9.15;;;9.50;90.80;;;;;;5064513;28;20048;-64
2020/12/21 18:50:00;;;;;;;9.23;8.32;;;9.30;91.30;;;;;;5051535;28;20063;-63
2020/12/21 18:52:26;;;;;;;8.48;7.38;;;9.30;91.30;;;;;;5063943;28;20057;-64
2020/12/21 18:54:55;;;;;;;10.27;9.27;;;9.30;91.50;;;;;;5048751;28;20143;-64
2020/12/21 18:57:21;;;;;;;9.80;8.85;;;9.30;91.20;;;;;;5057352;28;20045;-63
2020/12/21 18:59:46;;;;;;;9.95;8.50;;;9.10;91.90;;;;;;5045124;28;20077;-64
2020/12/21 19:02:14;;;;;;;9.48;8.55;;;9.20;91.90;;;;;;5048879;28;20044;-65
2020/12/21 19:04:40;;;;;;;10.27;9.27;;;9.40;91.40;;;;;;5044720;28;20041;-65
2020/12/21 19:07:06;;;;;;;11.02;9.93;;;9.30;91.30;;;;;;5060044;28;20486;-65
2020/12/21 19:09:32;;;;;;;8.82;7.50;;;9.40;91.40;;;;;;5050175;28;20065;-66
2020/12/21 19:11:58;;;;;;;11.00;8.55;;;9.30;91.60;;;;;;5070406;28;20072;-66
2020/12/21 19:14:25;;;;;;;10.55;9.45;;;9.40;91.40;;;;;;5049211;28;20123;-66
2020/12/21 19:16:50;;;;;;;12.40;10.80;;;9.40;91.40;;;;;;5059772;28;20068;-66
2020/12/21 19:19:16;;;;;;;8.43;6.97;;;9.30;91.80;;;;;;5050839;28;20045;-66
2020/12/21 19:21:42;;;;;;;9.65;8.18;;;9.30;91.80;;;;;;5074234;28;20477;-65
2020/12/21 19:24:08;;;;;;;13.32;9.38;;;9.30;91.90;;;;;;5058377;28;20045;-65
2020/12/21 19:26:34;;;;;;;9.73;8.73;;;9.30;91.80;;;;;;5064657;28;20060;-65
2020/12/21 19:29:00;;;;;;;9.40;8.50;;;9.40;91.80;;;;;;5058274;28;20102;-66
2020/12/21 19:31:37;;;;;;;13.93;12.30;;;9.40;91.70;;;;;;5044599;28;20052;-66
2020/12/21 19:34:04;;;;;;;11.85;10.65;;;9.20;92.30;;;;;;5052520;28;20083;-66
2020/12/21 19:36:31;;;;;;;16.35;14.85;;;9.40;91.80;;;;;;5056075;28;20114;-65
2020/12/21 19:38:57;;;;;;;13.35;12.00;;;9.40;91.90;;;;;;5057558;28;20194;-65
2020/12/21 19:41:23;;;;;;;13.48;11.77;;;9.40;91.80;;;;;;5054954;28;20162;-66
2020/12/21 19:43:50;;;;;;;12.30;11.00;;;9.40;92.10;;;;;;5060072;28;20040;-66
2020/12/21 19:46:17;;;;;;;13.38;11.98;;;9.50;91.90;;;;;;5057550;28;20048;-66
2020/12/21 19:48:43;;;;;;;11.48;10.27;;;9.40;91.70;;;;;;5058666;28;20044;-66
2020/12/21 19:51:10;;;;;;;11.02;9.75;;;9.50;92.00;;;;;;5054870;28;20099;-65
2020/12/21 19:53:39;;;;;;;13.50;12.10;;;9.50;91.90;;;;;;5057336;28;20063;-65
2020/12/21 19:56:05;;;;;;;18.55;16.77;;;9.50;91.80;;;;;;5061144;28;20045;-65
2020/12/21 19:58:32;;;;;;;16.10;14.50;;;9.50;92.00;;;;;;5059352;28;20048;-65
2020/12/21 20:00:57;;;;;;;14.30;12.82;;;9.40;92.10;;;;;;5057829;28;20067;-66
2020/12/21 20:03:24;;;;;;;12.90;11.45;;;9.40;92.30;;;;;;5058764;28;20048;-65
2020/12/21 20:05:50;;;;;;;14.00;12.60;;;9.50;92.60;;;;;;5048305;28;20400;-66
2020/12/21 20:08:16;;;;;;;12.57;11.35;;;9.60;91.90;;;;;;5059747;28;20045;-66
2020/12/21 20:10:44;;;;;;;13.50;10.85;;;9.50;92.40;;;;;;5057301;28;20055;-66
2020/12/21 20:13:10;;;;;;;9.77;8.75;;;9.50;92.60;;;;;;5063749;28;20044;-66
2020/12/21 20:15:36;;;;;;;8.65;7.45;;;9.60;92.10;;;;;;5056947;28;20083;-66
2020/12/21 20:18:02;;;;;;;14.38;12.85;;;9.60;92.20;;;;;;5063796;28;20531;-66
2020/12/21 20:20:27;;;;;;;13.55;10.70;;;9.60;92.30;;;;;;5054402;28;20045;-66
2020/12/21 20:22:53;;;;;;;13.57;12.10;;;9.70;92.10;;;;;;5065743;28;20045;-67
2020/12/21 20:25:19;;;;;;;18.60;16.63;;;9.70;92.10;;;;;;5046858;28;20041;-66
2020/12/21 20:27:45;;;;;;;14.55;13.15;;;9.40;92.80;;;;;;5057100;28;20044;-66
2020/12/21 20:30:11;;;;;;;14.85;13.30;;;9.60;92.50;;;;;;5051812;28;20134;-66
2020/12/21 20:32:37;;;;;;;19.67;17.90;;;9.70;92.20;;;;;;5066016;28;20417;-66
2020/12/21 20:35:04;;;;;;;19.05;17.27;;;9.40;93.10;;;;;;5044335;28;20057;-66
2020/12/21 20:37:29;;;;;;;15.50;14.00;;;9.50;92.90;;;;;;5068820;28;20044;-66
2020/12/21 20:39:55;;;;;;;12.32;11.00;;;9.50;92.80;;;;;;5047870;28;20063;-71
2020/12/21 20:42:21;;;;;;;13.82;12.40;;;9.40;93.40;;;;;;5069783;28;20192;-66
2020/12/21 20:44:47;;;;;;;7.30;6.20;;;9.50;93.40;;;;;;5045663;28;20053;-67
2020/12/21 20:47:13;;;;;;;15.02;13.13;;;9.60;93.20;;;;;;5054278;28;20033;-67
2020/12/21 20:49:42;;;;;;;12.75;10.95;;;9.30;93.60;;;;;;5052098;28;20041;-67
2020/12/21 20:52:09;;;;;;;17.73;16.08;;;9.70;92.80;;;;;;5060800;28;20385;-67
2020/12/21 20:54:35;;;;;;;14.75;13.25;;;9.60;92.70;;;;;;5053998;28;20045;-66
2020/12/21 20:57:01;;;;;;;13.00;11.70;;;9.50;93.20;;;;;;5062897;28;20060;-66
2020/12/21 20:59:27;;;;;;;11.38;9.70;;;9.60;93.00;;;;;;5057562;28;20083;-66
2020/12/21 21:01:54;;;;;;;12.57;11.38;;;9.70;92.90;;;;;;5052057;28;20047;-67
2020/12/21 21:04:21;;;;;;;14.13;12.80;;;9.70;92.70;;;;;;5057066;28;20051;-66
2020/12/21 21:06:47;;;;;;;18.05;16.17;;;9.40;93.60;;;;;;5043233;28;20053;-66
2020/12/21 21:09:14;;;;;;;13.20;11.80;;;9.80;92.80;;;;;;5056850;28;20049;-66
2020/12/21 21:11:41;;;;;;;12.63;11.32;;;9.90;92.60;;;;;;5063768;28;20116;-66
2020/12/21 21:14:08;;;;;;;10.60;9.50;;;9.80;92.90;;;;;;5060214;28;20112;-67
2020/12/21 21:16:51;;;;;;;12.52;11.23;;;9.70;93.10;;;;;;5049986;28;20048;-67
2020/12/21 21:19:23;;;;;;;13.32;11.98;;;9.60;93.40;;;;;;5057968;28;20045;-67
2020/12/21 21:21:55;;;;;;;8.73;5.88;;;9.60;93.40;;;;;;5062774;28;20090;-67
2020/12/21 21:24:22;;;;;;;9.07;8.05;;;9.80;93.50;;;;;;5059285;28;20047;-67
2020/12/21 21:26:53;;;;;;;10.68;9.57;;;10.00;92.80;;;;;;5063500;28;20047;-66
2020/12/21 21:29:21;;;;;;;9.30;8.38;;;9.70;93.70;;;;;;5052591;28;20049;-66
2020/12/21 21:31:50;;;;;;;7.55;6.38;;;9.70;93.60;;;;;;5040851;28;20045;-65
2020/12/21 21:34:17;;;;;;;9.52;8.00;;;9.90;93.40;;;;;;5032429;28;20037;-65
2020/12/21 21:36:48;;;;;;;9.40;7.90;;;9.70;93.70;;;;;;5033069;28;20046;-66
2020/12/21 21:39:14;;;;;;;8.35;7.30;;;9.80;93.90;;;;;;5034196;28;20045;-66
2020/12/21 21:41:45;;;;;;;10.75;9.48;;;9.90;93.60;;;;;;5028100;28;20078;-65
2020/12/21 21:44:12;;;;;;;9.88;8.88;;;9.80;94.00;;;;;;5024638;28;20046;-66
2020/12/21 21:46:38;;;;;;;10.65;9.55;;;9.80;94.00;;;;;;5025541;28;20053;-66
2020/12/21 21:49:04;;;;;;;9.75;8.75;;;9.80;93.80;;;;;;5025884;28;20046;-66
2020/12/21 21:51:34;;;;;;;8.95;8.05;;;9.90;93.70;;;;;;5024723;28;20053;-66
2020/12/21 21:54:00;;;;;;;12.38;11.18;;;10.00;93.50;;;;;;5037195;28;20068;-66
2020/12/21 21:56:27;;;;;;;11.15;10.00;;;9.90;94.00;;;;;;5037471;28;20109;-66
2020/12/21 21:58:53;;;;;;;11.20;10.02;;;10.10;93.20;;;;;;5025459;28;20046;-66
2020/12/21 22:01:18;;;;;;;13.13;11.75;;;10.00;93.70;;;;;;5030976;28;20072;-66
2020/12/21 22:03:44;;;;;;;13.23;11.82;;;9.90;93.80;;;;;;5045407;28;20455;-66
2020/12/21 22:06:11;;;;;;;11.20;10.05;;;10.00;93.90;;;;;;5045200;28;20116;-66
2020/12/21 22:08:36;;;;;;;12.75;11.48;;;10.00;93.70;;;;;;5045034;28;20056;-66
2020/12/21 22:11:02;;;;;;;11.30;10.10;;;9.90;93.90;;;;;;5045328;28;20048;-66
2020/12/21 22:13:29;;;;;;;12.73;10.23;;;10.00;93.70;;;;;;5034063;28;20053;-65
2020/12/21 22:15:55;;;;;;;10.30;9.23;;;9.90;94.20;;;;;;5028778;28;20049;-66
2020/12/21 22:18:21;;;;;;;10.32;9.05;;;9.90;94.50;;;;;;5035843;28;20076;-66
2020/12/21 22:20:46;;;;;;;10.52;8.77;;;10.00;94.10;;;;;;5049598;28;20045;-66
2020/12/21 22:23:12;;;;;;;9.70;8.13;;;10.10;93.70;;;;;;5049438;28;20097;-65
2020/12/21 22:25:38;;;;;;;8.85;7.80;;;10.20;93.60;;;;;;5044329;28;20070;-66
2020/12/21 22:28:04;;;;;;;9.57;8.50;;;10.10;94.20;;;;;;5028849;28;20516;-66
2020/12/21 22:30:29;;;;;;;11.20;9.15;;;10.00;94.00;;;;;;5034222;28;20101;-66
2020/12/21 22:32:55;;;;;;;10.50;9.45;;;10.10;93.90;;;;;;5048419;28;20045;-66
2020/12/21 22:35:21;;;;;;;10.02;8.93;;;10.10;94.00;;;;;;5037021;28;20109;-66
2020/12/21 22:37:47;;;;;;;9.57;8.57;;;9.90;94.50;;;;;;5046938;28;20468;-66
2020/12/21 22:40:13;;;;;;;9.05;7.63;;;10.00;94.50;;;;;;5048331;28;20068;-66
2020/12/21 22:42:41;;;;;;;8.20;6.95;;;10.10;94.40;;;;;;5048396;28;20042;-66
2020/12/21 22:45:08;;;;;;;7.32;6.25;;;10.20;94.20;;;;;;5048345;28;20050;-66
2020/12/21 22:47:34;;;;;;;10.15;7.95;;;10.10;94.30;;;;;;5048013;28;20045;-66
2020/12/21 22:50:00;;;;;;;8.38;7.57;;;10.10;94.50;;;;;;5036111;28;20046;-66
2020/12/21 22:52:26;;;;;;;8.82;7.30;;;10.00;94.50;;;;;;5048165;28;20060;-66
2020/12/21 22:54:53;;;;;;;8.98;7.57;;;10.00;94.90;;;;;;5048002;28;20065;-66
2020/12/21 22:57:19;;;;;;;8.25;7.45;;;10.10;94.40;;;;;;5047843;28;20049;-66
2020/12/21 22:59:45;;;;;;;11.35;8.90;;;10.00;94.80;;;;;;5047905;28;20113;-66
2020/12/21 23:02:13;;;;;;;9.35;7.80;;;10.20;94.60;;;;;;5047796;28;20061;-66
2020/12/21 23:04:39;;;;;;;7.20;6.00;;;10.20;94.40;;;;;;5033771;28;20054;-66
2020/12/21 23:07:05;;;;;;;8.13;7.32;;;10.20;94.70;;;;;;5028083;28;20665;-66
2020/12/21 23:09:31;;;;;;;8.80;7.80;;;10.20;94.90;;;;;;5032692;28;20048;-66
2020/12/21 23:11:57;;;;;;;7.68;6.88;;;10.50;93.80;;;;;;5048668;28;20045;-66
2020/12/21 23:14:23;;;;;;;8.43;7.30;;;10.40;94.30;;;;;;5048082;28;20054;-66
2020/12/21 23:16:49;;;;;;;7.63;6.82;;;10.30;94.50;;;;;;5047342;28;20053;-66
2020/12/21 23:19:15;;;;;;;11.23;7.47;;;10.20;94.80;;;;;;5047792;28;20485;-66
2020/12/21 23:21:41;;;;;;;9.30;6.20;;;10.30;94.80;;;;;;5047752;28;20079;-66
2020/12/21 23:24:07;;;;;;;8.65;7.28;;;10.30;94.90;;;;;;5047432;28;20041;-66
2020/12/21 23:26:33;;;;;;;7.80;6.07;;;10.40;94.60;;;;;;5046788;28;20120;-66
2020/12/21 23:28:59;;;;;;;9.40;8.23;;;10.40;94.60;;;;;;5047507;28;20052;-66
2020/12/21 23:31:25;;;;;;;8.35;6.78;;;10.50;94.60;;;;;;5047462;28;20080;-66
2020/12/21 23:33:51;;;;;;;13.38;11.02;;;10.40;94.70;;;;;;5047938;28;20057;-66
2020/12/21 23:36:16;;;;;;;6.68;5.90;;;10.40;94.70;;;;;;5047159;28;20071;-66
2020/12/21 23:38:42;;;;;;;7.07;6.32;;;10.40;95.00;;;;;;5047273;28;20045;-66
2020/12/21 23:41:08;;;;;;;6.32;5.72;;;10.40;94.90;;;;;;5047309;28;20072;-66
2020/12/21 23:43:34;;;;;;;6.13;5.53;;;10.50;94.70;;;;;;5047306;28;20049;-66
2020/12/21 23:46:00;;;;;;;6.80;6.10;;;10.70;94.40;;;;;;5046998;28;20394;-67
2020/12/21 23:48:25;;;;;;;5.65;5.15;;;10.60;94.20;;;;;;5046881;28;20054;-67
2020/12/21 23:50:52;;;;;;;6.35;5.60;;;10.80;94.10;;;;;;5033607;28;20176;-67
2020/12/21 23:53:17;;;;;;;6.25;5.65;;;10.70;94.20;;;;;;5047000;28;20049;-67
2020/12/21 23:55:43;;;;;;;5.82;5.32;;;10.80;94.20;;;;;;5032307;28;20042;-67
2020/12/21 23:58:09;;;;;;;6.10;5.43;;;10.90;94.00;;;;;;5039021;28;20108;-67
